Time;durP1;ratioP1;P1;durP2;ratioP2;P2;SDS_P1;SDS_P2;PMS_P1;PMS_P2;Temp;Humidity;BMP_temperature;BMP_pressure;BME280_temperature;BME280_humidity;BME280_pressure;Samples;Min_cycle;Max_cycle;Signal;HPM_P1;HPM_P2
2022/01/09 00:00:14;;;;;;;20.50;17.30;;;4.50;99.90;;;;;;4983401;28;20096;-73
2022/01/09 00:02:39;;;;;;;17.58;15.77;;;4.50;99.90;;;;;;4963805;28;20027;-73
2022/01/09 00:05:06;;;;;;;17.80;16.00;;;4.50;99.90;;;;;;4968742;28;20547;-73
2022/01/09 00:07:32;;;;;;;18.27;16.38;;;4.50;99.90;;;;;;4961340;28;20038;-73
2022/01/09 00:09:58;;;;;;;19.52;16.85;;;4.50;99.90;;;;;;4984169;28;20524;-73
2022/01/09 00:12:24;;;;;;;20.35;16.02;;;4.50;99.90;;;;;;4965442;28;20041;-73
2022/01/09 00:14:50;;;;;;;19.77;16.30;;;4.50;99.90;;;;;;4970449;28;20050;-73
2022/01/09 00:17:16;;;;;;;17.17;15.32;;;4.50;99.90;;;;;;4976378;28;20037;-73
2022/01/09 00:19:42;;;;;;;17.85;15.95;;;4.50;99.90;;;;;;4972318;28;20404;-73
2022/01/09 00:22:07;;;;;;;18.20;16.30;;;4.60;99.90;;;;;;4957501;28;20402;-73
2022/01/09 00:24:33;;;;;;;17.58;15.80;;;4.60;99.90;;;;;;4963654;28;20437;-73
2022/01/09 00:26:59;;;;;;;18.50;16.50;;;4.60;99.90;;;;;;4981567;28;20408;-73
2022/01/09 00:29:24;;;;;;;18.10;16.27;;;4.60;99.90;;;;;;4970263;28;20034;-73
2022/01/09 00:31:50;;;;;;;18.40;16.50;;;4.60;99.90;;;;;;4967439;28;20034;-73
2022/01/09 00:34:16;;;;;;;18.70;16.77;;;4.60;99.90;;;;;;4969633;28;20113;-73
2022/01/09 00:36:41;;;;;;;17.45;15.50;;;4.60;99.90;;;;;;4967064;28;20062;-73
2022/01/09 00:39:07;;;;;;;17.80;16.00;;;4.60;99.90;;;;;;4970278;28;20057;-73
2022/01/09 00:41:33;;;;;;;18.55;16.45;;;4.70;99.90;;;;;;4960294;28;20369;-73
2022/01/09 00:43:58;;;;;;;17.80;16.00;;;4.70;99.90;;;;;;4981192;28;20082;-73
2022/01/09 00:46:24;;;;;;;18.70;16.63;;;4.70;99.90;;;;;;4968094;28;20115;-73
2022/01/09 00:48:49;;;;;;;18.80;16.88;;;4.70;99.90;;;;;;4970046;28;20041;-73
2022/01/09 00:51:15;;;;;;;19.55;17.42;;;4.60;99.90;;;;;;4969747;28;20054;-73
2022/01/09 00:53:41;;;;;;;20.13;17.63;;;4.70;99.90;;;;;;4971269;28;20046;-73
2022/01/09 00:56:06;;;;;;;20.60;18.17;;;4.70;99.90;;;;;;4973840;28;20046;-73
2022/01/09 00:58:32;;;;;;;21.55;19.25;;;4.70;99.90;;;;;;4972625;28;20077;-74
2022/01/09 01:00:59;;;;;;;21.95;19.63;;;4.60;99.90;;;;;;4973723;28;20030;-73
2022/01/09 01:03:25;;;;;;;21.42;18.98;;;4.60;99.90;;;;;;4972047;28;20100;-73
2022/01/09 01:05:51;;;;;;;21.88;18.73;;;4.60;99.90;;;;;;4975087;28;20054;-73
2022/01/09 01:08:17;;;;;;;23.90;20.35;;;4.70;99.90;;;;;;4967038;28;20054;-73
2022/01/09 01:10:43;;;;;;;24.33;19.88;;;4.70;99.90;;;;;;4972878;28;20043;-73
2022/01/09 01:13:09;;;;;;;23.20;19.92;;;4.70;99.90;;;;;;4957234;28;20109;-73
2022/01/09 01:15:34;;;;;;;23.95;20.48;;;4.70;99.90;;;;;;4969182;28;20045;-73
2022/01/09 01:18:00;;;;;;;27.05;21.45;;;4.70;99.90;;;;;;4967283;28;20112;-73
2022/01/09 01:20:27;;;;;;;27.67;22.13;;;4.70;99.90;;;;;;4969413;28;20055;-73
2022/01/09 01:22:53;;;;;;;26.45;22.08;;;4.70;99.90;;;;;;4975980;28;20045;-73
2022/01/09 01:25:20;;;;;;;27.23;21.67;;;4.70;99.90;;;;;;4981930;28;20093;-73
2022/01/09 01:27:46;;;;;;;27.45;22.58;;;4.70;99.90;;;;;;4971956;28;20133;-73
2022/01/09 01:30:13;;;;;;;23.05;19.92;;;4.60;99.90;;;;;;4974346;28;20049;-73
2022/01/09 01:32:40;;;;;;;24.20;19.77;;;4.70;99.90;;;;;;4957118;28;20039;-73
2022/01/09 01:35:07;;;;;;;23.60;19.83;;;4.70;99.90;;;;;;4972564;28;20053;-73
2022/01/09 01:37:33;;;;;;;25.67;20.00;;;4.70;99.90;;;;;;4957337;28;20030;-73
2022/01/09 01:39:59;;;;;;;25.33;20.80;;;4.80;99.90;;;;;;4989365;28;20074;-73
2022/01/09 01:42:24;;;;;;;27.48;20.75;;;4.70;99.90;;;;;;4959272;28;20061;-73
2022/01/09 01:44:51;;;;;;;25.92;21.25;;;4.70;99.90;;;;;;4970140;28;20038;-73
2022/01/09 01:47:19;;;;;;;22.92;18.27;;;4.80;99.90;;;;;;4985993;28;20045;-73
2022/01/09 01:49:45;;;;;;;23.00;18.08;;;4.80;99.90;;;;;;4977584;28;20034;-73
2022/01/09 01:52:13;;;;;;;21.95;18.58;;;4.80;99.90;;;;;;4974559;28;20037;-73
2022/01/09 01:54:39;;;;;;;22.58;17.55;;;4.80;99.90;;;;;;4972991;28;20038;-74
2022/01/09 01:57:05;;;;;;;21.48;17.60;;;4.80;99.90;;;;;;4970670;28;20072;-74
2022/01/09 01:59:31;;;;;;;20.48;17.25;;;4.90;99.90;;;;;;4951273;28;20041;-74
2022/01/09 02:01:58;;;;;;;22.13;18.08;;;4.90;99.90;;;;;;4983595;28;20046;-74
2022/01/09 02:04:24;;;;;;;20.17;17.25;;;4.90;99.90;;;;;;4972473;28;20041;-74
2022/01/09 02:06:50;;;;;;;19.67;16.45;;;4.90;99.90;;;;;;4971191;28;20035;-74
2022/01/09 02:09:16;;;;;;;18.33;15.82;;;4.90;99.90;;;;;;4972362;28;20404;-74
2022/01/09 02:11:42;;;;;;;22.17;16.27;;;4.90;99.90;;;;;;4974501;28;20076;-74
2022/01/09 02:14:08;;;;;;;20.23;16.23;;;5.00;99.90;;;;;;4968961;28;20061;-74
2022/01/09 02:16:42;;;;;;;19.65;15.45;;;4.90;99.90;;;;;;4971122;28;20042;-74
2022/01/09 02:19:14;;;;;;;19.15;15.65;;;4.90;99.90;;;;;;4988253;28;20039;-75
2022/01/09 02:21:41;;;;;;;19.30;15.82;;;4.90;99.90;;;;;;4990381;28;20069;-74
2022/01/09 02:24:06;;;;;;;18.33;14.88;;;5.00;99.90;;;;;;4968856;28;20577;-74
2022/01/09 02:26:32;;;;;;;16.95;14.75;;;4.90;99.90;;;;;;4953896;28;20074;-74
2022/01/09 02:28:58;;;;;;;19.98;15.27;;;4.90;99.90;;;;;;4967839;28;20042;-74
2022/01/09 02:31:24;;;;;;;20.05;16.33;;;5.00;99.90;;;;;;4988241;28;20046;-74
2022/01/09 02:33:49;;;;;;;19.98;16.27;;;5.00;99.90;;;;;;4973897;28;20042;-74
2022/01/09 02:36:17;;;;;;;20.75;17.17;;;5.10;99.90;;;;;;4970197;28;20093;-74
2022/01/09 02:38:43;;;;;;;22.38;16.40;;;5.10;99.90;;;;;;4966942;28;20035;-74
2022/01/09 02:41:08;;;;;;;21.33;15.48;;;5.10;99.90;;;;;;4956404;28;20045;-74
2022/01/09 02:43:34;;;;;;;22.45;16.15;;;5.10;99.90;;;;;;4969363;28;20051;-74
2022/01/09 02:46:24;;;;;;;21.42;16.42;;;5.10;99.90;;;;;;4971583;28;20030;-74
2022/01/09 02:48:51;;;;;;;23.15;15.88;;;5.10;99.90;;;;;;4970707;28;20038;-74
2022/01/09 02:51:18;;;;;;;22.83;15.70;;;5.10;99.90;;;;;;4950186;28;20050;-75
2022/01/09 02:53:47;;;;;;;20.92;14.18;;;5.10;99.90;;;;;;4966382;28;20046;-75
2022/01/09 02:56:15;;;;;;;18.20;12.23;;;5.10;99.90;;;;;;4985507;28;20043;-74
2022/01/09 02:58:41;;;;;;;23.80;11.45;;;5.20;99.90;;;;;;4952705;28;20041;-75
2022/01/09 03:01:10;;;;;;;21.52;10.50;;;5.30;99.90;;;;;;4968569;28;20041;-74
2022/01/09 03:03:36;;;;;;;20.60;10.20;;;5.30;99.90;;;;;;4967105;28;20551;-74
2022/01/09 03:06:02;;;;;;;25.00;8.18;;;5.40;99.90;;;;;;4968140;28;20045;-74
2022/01/09 03:08:29;;;;;;;24.92;6.65;;;5.40;99.90;;;;;;4966557;28;20043;-74
2022/01/09 03:10:55;;;;;;;27.13;6.57;;;5.40;99.90;;;;;;4967998;28;20042;-74
2022/01/09 03:13:21;;;;;;;21.35;4.85;;;5.50;99.90;;;;;;4969498;28;20048;-74
2022/01/09 03:15:47;;;;;;;31.02;4.65;;;5.50;99.90;;;;;;4984050;28;20074;-74
2022/01/09 03:18:12;;;;;;;18.77;4.22;;;5.60;99.90;;;;;;4967624;28;20030;-74
2022/01/09 03:20:39;;;;;;;27.65;5.15;;;5.70;99.90;;;;;;4967428;28;20039;-74
2022/01/09 03:23:05;;;;;;;33.15;5.55;;;5.70;99.90;;;;;;4965776;28;20034;-74
2022/01/09 03:25:31;;;;;;;34.03;6.10;;;5.80;99.90;;;;;;4968059;28;20054;-74
2022/01/09 03:27:58;;;;;;;32.42;6.43;;;5.80;99.90;;;;;;4965867;28;20053;-74
2022/01/09 03:30:25;;;;;;;39.40;6.72;;;5.80;99.90;;;;;;4966880;28;20078;-74
2022/01/09 03:32:52;;;;;;;33.05;6.30;;;5.90;99.90;;;;;;4952130;28;20046;-74
2022/01/09 03:35:21;;;;;;;36.97;6.78;;;5.90;99.90;;;;;;4965620;28;20069;-74
2022/01/09 03:37:48;;;;;;;36.67;6.03;;;5.90;99.90;;;;;;4963915;28;20053;-74
2022/01/09 03:40:20;;;;;;;43.08;6.78;;;5.90;99.90;;;;;;4967319;28;20480;-74
2022/01/09 03:42:51;;;;;;;46.42;6.45;;;6.00;99.90;;;;;;4980032;28;20061;-74
2022/01/09 03:45:18;;;;;;;43.75;6.20;;;6.00;99.90;;;;;;4964297;28;20054;-74
2022/01/09 03:47:44;;;;;;;50.55;6.38;;;6.00;99.90;;;;;;4962821;28;20070;-74
2022/01/09 03:50:12;;;;;;;52.28;7.25;;;6.10;99.90;;;;;;4965870;28;20085;-74
2022/01/09 03:52:39;;;;;;;53.33;7.07;;;6.20;99.90;;;;;;4965647;28;20125;-74
2022/01/09 03:55:08;;;;;;;54.03;6.57;;;6.20;99.90;;;;;;4970863;28;20034;-74
2022/01/09 03:57:33;;;;;;;52.80;7.88;;;6.30;99.90;;;;;;4968818;28;20133;-74
2022/01/09 03:59:59;;;;;;;49.85;6.57;;;6.30;99.90;;;;;;4965804;28;20133;-74
2022/01/09 04:02:25;;;;;;;52.05;6.55;;;6.30;99.90;;;;;;4966524;28;20493;-74
2022/01/09 04:04:50;;;;;;;48.90;6.45;;;6.30;99.90;;;;;;4967830;28;20037;-74
2022/01/09 04:07:17;;;;;;;52.08;5.88;;;6.30;99.90;;;;;;4967145;28;20057;-74
2022/01/09 04:09:45;;;;;;;54.60;6.78;;;6.30;99.90;;;;;;4967633;28;20042;-74
2022/01/09 04:12:18;;;;;;;50.90;6.55;;;6.30;99.90;;;;;;4965160;28;20046;-74
2022/01/09 04:14:48;;;;;;;43.47;5.90;;;6.30;99.90;;;;;;4964920;28;20042;-74
2022/01/09 04:17:24;;;;;;;62.35;7.20;;;6.30;99.90;;;;;;4982691;28;20030;-74
2022/01/09 04:19:50;;;;;;;44.28;5.45;;;6.30;99.90;;;;;;4966199;28;20045;-74
2022/01/09 04:22:15;;;;;;;50.60;6.10;;;6.40;99.90;;;;;;4984407;28;20038;-74
2022/01/09 04:24:41;;;;;;;44.85;6.28;;;6.30;99.90;;;;;;4968183;28;20070;-74
2022/01/09 04:27:07;;;;;;;46.90;5.95;;;6.30;99.90;;;;;;4965903;28;20197;-74
2022/01/09 04:29:32;;;;;;;48.80;5.95;;;6.30;99.90;;;;;;4981387;28;20038;-74
2022/01/09 04:31:58;;;;;;;46.53;6.80;;;6.20;99.90;;;;;;4967429;28;20134;-74
2022/01/09 04:34:24;;;;;;;38.20;5.68;;;6.30;99.90;;;;;;4962760;28;20050;-74
2022/01/09 04:36:50;;;;;;;35.42;5.80;;;6.30;99.90;;;;;;4964522;28;20034;-74
2022/01/09 04:39:15;;;;;;;39.40;5.75;;;6.30;99.90;;;;;;4965180;28;20042;-75
2022/01/09 04:41:41;;;;;;;44.08;5.35;;;6.30;99.90;;;;;;4984394;28;20097;-74
2022/01/09 04:44:07;;;;;;;39.50;7.45;;;6.40;99.90;;;;;;4965389;28;20039;-75
2022/01/09 04:46:42;;;;;;;36.88;4.93;;;6.40;99.90;;;;;;4967379;28;20034;-75
2022/01/09 04:49:08;;;;;;;36.75;4.93;;;6.40;99.90;;;;;;4964976;28;20034;-75
2022/01/09 04:51:34;;;;;;;41.83;5.72;;;6.30;99.90;;;;;;4969618;28;20057;-75
2022/01/09 04:53:59;;;;;;;40.85;5.13;;;6.30;99.90;;;;;;4969027;28;20413;-75
2022/01/09 04:56:25;;;;;;;33.55;5.32;;;6.30;99.90;;;;;;4967760;28;20042;-75
2022/01/09 04:58:51;;;;;;;32.17;4.38;;;6.30;99.90;;;;;;4966531;28;20050;-75
2022/01/09 05:01:16;;;;;;;37.75;5.20;;;6.30;99.90;;;;;;4963121;28;20125;-75
2022/01/09 05:03:42;;;;;;;40.40;5.53;;;6.20;99.90;;;;;;4962960;28;20509;-75
2022/01/09 05:06:07;;;;;;;34.88;4.60;;;6.20;99.90;;;;;;4982633;28;20046;-75
2022/01/09 05:08:33;;;;;;;30.30;5.50;;;6.20;99.90;;;;;;4965812;28;20706;-75
2022/01/09 05:10:59;;;;;;;32.38;4.80;;;6.20;99.90;;;;;;4980145;28;20039;-75
2022/01/09 05:13:24;;;;;;;33.70;5.07;;;6.10;99.90;;;;;;4968898;28;20121;-75
2022/01/09 05:15:50;;;;;;;36.33;5.70;;;6.20;99.90;;;;;;4970474;28;20136;-75
2022/01/09 05:18:16;;;;;;;32.45;4.45;;;6.10;99.90;;;;;;4985002;28;20047;-75
2022/01/09 05:20:42;;;;;;;30.50;5.40;;;6.10;99.90;;;;;;4967161;28;20046;-75
2022/01/09 05:23:08;;;;;;;29.40;5.70;;;6.10;99.90;;;;;;4951184;28;20385;-75
2022/01/09 05:25:34;;;;;;;31.75;4.88;;;6.00;99.90;;;;;;4963443;28;20125;-75
2022/01/09 05:28:00;;;;;;;21.33;4.30;;;6.00;99.90;;;;;;4950255;28;20181;-75
2022/01/09 05:30:25;;;;;;;36.30;5.35;;;6.00;99.90;;;;;;4952664;28;20043;-75
2022/01/09 05:32:51;;;;;;;25.98;3.75;;;6.00;99.90;;;;;;4970651;28;20049;-75
2022/01/09 05:35:17;;;;;;;29.90;4.70;;;6.10;99.90;;;;;;4968856;28;20045;-75
2022/01/09 05:37:42;;;;;;;27.25;4.18;;;6.00;99.90;;;;;;4969690;28;20039;-75
2022/01/09 05:40:09;;;;;;;24.83;3.70;;;6.00;99.90;;;;;;4967665;28;20038;-75
2022/01/09 05:42:34;;;;;;;19.17;3.75;;;6.00;99.90;;;;;;4970348;28;20049;-75
2022/01/09 05:45:02;;;;;;;26.23;3.83;;;5.90;99.90;;;;;;4988556;28;20034;-75
2022/01/09 05:47:27;;;;;;;31.38;4.38;;;5.90;99.90;;;;;;4968710;28;20045;-75
2022/01/09 05:49:53;;;;;;;29.45;3.47;;;5.90;99.90;;;;;;4968388;28;20046;-75
2022/01/09 05:52:19;;;;;;;24.67;3.97;;;5.90;99.90;;;;;;4968755;28;20126;-75
2022/01/09 05:54:44;;;;;;;25.80;4.47;;;5.90;99.90;;;;;;4987091;28;20140;-75
2022/01/09 05:57:10;;;;;;;26.95;3.97;;;5.80;99.90;;;;;;4970194;28;20026;-75
2022/01/09 05:59:36;;;;;;;27.67;3.88;;;5.90;99.90;;;;;;4963711;28;20641;-75
2022/01/09 06:02:01;;;;;;;26.05;3.95;;;5.80;99.90;;;;;;4967746;28;20042;-75
2022/01/09 06:04:27;;;;;;;27.60;4.28;;;5.80;99.90;;;;;;4986747;28;20046;-75
2022/01/09 06:06:54;;;;;;;26.85;4.18;;;5.80;99.90;;;;;;4985226;28;20385;-75
2022/01/09 06:09:21;;;;;;;23.25;3.38;;;5.80;99.90;;;;;;4975098;28;20038;-75
2022/01/09 06:11:46;;;;;;;30.02;4.32;;;5.80;99.90;;;;;;4970601;28;20043;-76
2022/01/09 06:14:12;;;;;;;29.55;4.43;;;5.80;99.90;;;;;;4974800;28;20038;-76
2022/01/09 06:16:38;;;;;;;32.13;4.50;;;5.80;99.90;;;;;;4967082;28;20060;-76
2022/01/09 06:19:03;;;;;;;30.88;4.20;;;5.80;99.90;;;;;;4971740;28;20034;-76
2022/01/09 06:21:29;;;;;;;30.35;4.10;;;5.80;99.90;;;;;;4987445;28;20047;-76
2022/01/09 06:23:55;;;;;;;33.05;4.90;;;5.80;99.90;;;;;;4965447;28;20153;-75
2022/01/09 06:26:21;;;;;;;21.95;3.67;;;5.80;99.90;;;;;;4972528;28;20030;-76
2022/01/09 06:28:47;;;;;;;26.60;4.45;;;5.80;99.90;;;;;;4988013;28;20078;-76
2022/01/09 06:31:12;;;;;;;28.08;3.95;;;5.70;99.90;;;;;;4970132;28;20497;-76
2022/01/09 06:33:38;;;;;;;28.05;3.78;;;5.70;99.90;;;;;;4953613;28;20062;-76
2022/01/09 06:36:04;;;;;;;22.42;3.30;;;5.70;99.90;;;;;;4968335;28;20050;-75
2022/01/09 06:38:30;;;;;;;21.38;4.18;;;5.70;99.90;;;;;;4970068;28;20072;-76
2022/01/09 06:40:55;;;;;;;24.42;3.13;;;5.70;99.90;;;;;;4969162;28;20084;-76
2022/01/09 06:43:21;;;;;;;25.42;3.60;;;5.70;99.90;;;;;;4969251;28;20053;-76
2022/01/09 06:45:47;;;;;;;26.25;3.65;;;5.70;99.90;;;;;;4984269;28;20062;-76
2022/01/09 06:48:12;;;;;;;23.65;3.50;;;5.70;99.90;;;;;;4986873;28;20046;-76
2022/01/09 06:50:38;;;;;;;20.58;3.72;;;5.60;99.90;;;;;;4970687;28;20088;-76
2022/01/09 06:53:04;;;;;;;18.33;3.05;;;5.70;99.90;;;;;;4972213;28;20030;-75
2022/01/09 06:55:29;;;;;;;16.40;2.72;;;5.60;99.90;;;;;;4970947;28;20042;-76
2022/01/09 06:57:55;;;;;;;18.88;2.90;;;5.60;99.90;;;;;;4971938;28;20041;-76
2022/01/09 07:00:22;;;;;;;19.75;3.75;;;5.60;99.90;;;;;;4966320;28;20057;-76
2022/01/09 07:02:48;;;;;;;21.27;2.80;;;5.50;99.90;;;;;;4964114;28;20392;-76
2022/01/09 07:05:14;;;;;;;20.15;2.88;;;5.50;99.90;;;;;;4952970;28;20038;-76
2022/01/09 07:07:40;;;;;;;17.60;3.53;;;5.40;99.90;;;;;;4969365;28;20053;-76
2022/01/09 07:10:07;;;;;;;18.88;3.13;;;5.50;99.90;;;;;;4967646;28;20050;-76
2022/01/09 07:12:32;;;;;;;18.73;2.92;;;5.40;99.90;;;;;;4967307;28;20038;-76
2022/01/09 07:14:58;;;;;;;15.13;2.40;;;5.40;99.90;;;;;;4965925;28;20124;-76
2022/01/09 07:17:24;;;;;;;13.60;2.78;;;5.40;99.90;;;;;;4967252;28;20041;-76
2022/01/09 07:19:49;;;;;;;17.08;2.45;;;5.40;99.90;;;;;;4971340;28;20473;-75
2022/01/09 07:22:15;;;;;;;16.38;2.30;;;5.40;99.90;;;;;;4970049;28;20047;-76
2022/01/09 07:24:41;;;;;;;17.92;2.80;;;5.30;99.90;;;;;;4983231;28;20460;-76
2022/01/09 07:27:07;;;;;;;13.30;2.63;;;5.30;99.90;;;;;;4969282;28;20046;-76
2022/01/09 07:29:32;;;;;;;12.77;1.98;;;5.30;99.90;;;;;;4979745;28;20072;-75
2022/01/09 07:31:58;;;;;;;9.57;1.83;;;5.20;99.90;;;;;;4963820;28;20084;-76
2022/01/09 07:34:24;;;;;;;15.65;2.78;;;5.20;99.90;;;;;;4947949;28;20042;-76
2022/01/09 07:36:49;;;;;;;14.95;2.22;;;5.30;99.90;;;;;;4952043;28;20039;-76
2022/01/09 07:39:15;;;;;;;13.70;2.47;;;5.20;99.90;;;;;;4949698;28;20113;-76
2022/01/09 07:41:42;;;;;;;10.75;1.95;;;5.20;99.90;;;;;;4959288;28;20149;-76
2022/01/09 07:44:08;;;;;;;14.75;2.40;;;5.20;99.90;;;;;;4966452;28;20090;-76
2022/01/09 07:46:34;;;;;;;12.73;2.45;;;5.20;99.90;;;;;;4968587;28;20046;-76
2022/01/09 07:49:00;;;;;;;9.63;2.03;;;5.20;99.90;;;;;;4969618;28;20120;-76
2022/01/09 07:51:26;;;;;;;15.50;2.58;;;5.20;99.90;;;;;;4972792;28;20093;-76
2022/01/09 07:53:51;;;;;;;14.60;2.75;;;5.20;99.90;;;;;;4969633;28;20042;-76
2022/01/09 07:56:17;;;;;;;12.48;2.40;;;5.10;99.90;;;;;;4970328;28;20046;-76
2022/01/09 07:58:43;;;;;;;10.18;2.28;;;5.20;99.90;;;;;;4964030;28;20049;-76
2022/01/09 08:01:08;;;;;;;13.30;2.38;;;5.10;99.90;;;;;;4970263;28;20044;-76
2022/01/09 08:03:35;;;;;;;9.85;2.22;;;5.10;99.90;;;;;;4954411;28;20125;-76
2022/01/09 08:06:01;;;;;;;14.68;1.98;;;5.10;99.90;;;;;;4966014;28;20078;-76
2022/01/09 08:08:27;;;;;;;11.90;2.15;;;5.10;99.90;;;;;;4968049;28;20137;-76
2022/01/09 08:10:52;;;;;;;12.80;1.85;;;5.10;99.90;;;;;;4958965;28;20137;-76
2022/01/09 08:13:19;;;;;;;11.27;2.10;;;5.10;99.90;;;;;;4949321;28;20050;-76
2022/01/09 08:15:45;;;;;;;8.82;1.95;;;5.10;99.90;;;;;;4972679;28;20046;-76
2022/01/09 08:18:11;;;;;;;12.95;2.10;;;5.10;99.90;;;;;;4970694;28;20030;-76
2022/01/09 08:20:36;;;;;;;11.88;2.50;;;5.10;99.90;;;;;;4983322;23;20050;-76
2022/01/09 08:23:24;;;;;;;16.60;2.22;;;5.10;99.90;;;;;;4966369;28;22430;-76
2022/01/09 08:25:50;;;;;;;22.50;2.75;;;5.10;99.90;;;;;;4982401;28;20523;-76
2022/01/09 08:28:15;;;;;;;13.63;2.25;;;5.10;99.90;;;;;;4984629;28;20046;-75
2022/01/09 08:30:41;;;;;;;14.68;2.38;;;5.10;99.90;;;;;;4952584;28;20038;-75
2022/01/09 08:33:07;;;;;;;14.57;2.42;;;5.10;99.90;;;;;;4966580;28;20089;-76
2022/01/09 08:35:32;;;;;;;13.07;2.20;;;5.10;99.90;;;;;;4965920;28;20042;-76
2022/01/09 08:37:58;;;;;;;14.32;2.05;;;5.20;99.90;;;;;;4968549;28;20125;-74
2022/01/09 08:40:24;;;;;;;13.20;2.25;;;5.10;99.90;;;;;;4948929;28;20118;-75
2022/01/09 08:42:53;;;;;;;15.00;2.30;;;5.10;99.90;;;;;;4966213;28;20065;-74
2022/01/09 08:45:19;;;;;;;11.63;2.05;;;5.10;99.90;;;;;;4966333;28;20038;-75
2022/01/09 08:47:45;;;;;;;14.02;2.05;;;5.20;99.90;;;;;;4971225;28;20042;-75
2022/01/09 08:50:13;;;;;;;11.55;2.40;;;5.30;99.90;;;;;;4965736;28;20632;-75
2022/01/09 08:52:38;;;;;;;11.45;2.40;;;5.20;99.90;;;;;;4966238;28;20034;-75
2022/01/09 08:55:05;;;;;;;9.77;1.90;;;5.20;99.90;;;;;;4963124;28;20085;-75
2022/01/09 08:57:32;;;;;;;17.05;2.78;;;5.10;99.90;;;;;;4980958;28;20042;-74
2022/01/09 08:59:58;;;;;;;14.77;2.50;;;5.10;99.90;;;;;;4947491;28;20054;-75
2022/01/09 09:02:23;;;;;;;11.02;2.03;;;5.10;99.90;;;;;;4981489;28;20038;-76
2022/01/09 09:04:49;;;;;;;13.18;2.20;;;5.20;99.90;;;;;;4964361;28;20038;-75
2022/01/09 09:07:18;;;;;;;13.32;2.10;;;5.20;99.90;;;;;;4964198;28;20042;-75
2022/01/09 09:09:44;;;;;;;14.43;2.50;;;5.20;99.90;;;;;;4970492;28;20477;-75
2022/01/09 09:12:11;;;;;;;10.75;2.28;;;5.20;99.90;;;;;;4965948;28;20819;-76
2022/01/09 09:14:37;;;;;;;17.02;2.15;;;5.20;99.90;;;;;;4963045;28;20504;-75
2022/01/09 09:17:03;;;;;;;15.93;2.33;;;5.30;99.90;;;;;;4968291;28;20046;-76
2022/01/09 09:19:29;;;;;;;18.15;2.90;;;5.30;99.90;;;;;;4955404;28;20042;-75
2022/01/09 09:21:54;;;;;;;17.77;3.13;;;5.30;99.90;;;;;;4969613;28;20057;-74
2022/01/09 09:24:20;;;;;;;12.60;2.08;;;5.30;99.90;;;;;;4964397;28;20070;-75
2022/01/09 09:26:46;;;;;;;16.13;3.20;;;5.30;99.90;;;;;;4964634;28;20520;-75
2022/01/09 09:29:11;;;;;;;16.50;2.65;;;5.30;99.90;;;;;;4967943;28;20046;-75
2022/01/09 09:31:37;;;;;;;9.52;2.53;;;5.40;99.90;;;;;;4965164;28;20548;-75
2022/01/09 09:34:05;;;;;;;12.93;2.22;;;5.40;99.90;;;;;;4969006;28;20092;-75
2022/01/09 09:36:31;;;;;;;14.98;2.28;;;5.40;99.90;;;;;;4968510;28;20054;-74
2022/01/09 09:38:57;;;;;;;10.70;2.17;;;5.40;99.90;;;;;;4966213;28;20042;-75
2022/01/09 09:41:23;;;;;;;10.63;2.17;;;5.40;99.90;;;;;;4967848;28;20081;-75
2022/01/09 09:43:49;;;;;;;12.45;2.00;;;5.40;99.90;;;;;;4965309;28;20429;-75
2022/01/09 09:46:15;;;;;;;11.05;2.30;;;5.40;99.90;;;;;;4969975;28;20457;-75
2022/01/09 09:48:41;;;;;;;15.18;2.47;;;5.50;99.90;;;;;;4967602;28;20046;-75
2022/01/09 09:51:07;;;;;;;12.68;2.08;;;5.50;99.90;;;;;;4968511;28;20046;-75
2022/01/09 09:53:33;;;;;;;10.05;2.78;;;5.50;99.90;;;;;;4973173;28;20042;-75
2022/01/09 09:55:58;;;;;;;15.15;2.10;;;5.50;99.90;;;;;;4968559;28;20045;-74
2022/01/09 09:58:24;;;;;;;15.40;2.30;;;5.50;99.90;;;;;;4967001;28;20042;-75
2022/01/09 10:00:55;;;;;;;13.80;1.70;;;5.60;99.90;;;;;;4970121;28;20061;-75
2022/01/09 10:03:32;;;;;;;13.18;2.80;;;5.60;99.90;;;;;;4969008;28;22442;-75
2022/01/09 10:05:58;;;;;;;13.27;2.17;;;5.70;99.90;;;;;;4968759;28;20404;-75
2022/01/09 10:08:48;;;;;;;13.02;2.30;;;5.70;99.90;;;;;;4968562;28;20144;-75
2022/01/09 10:11:16;;;;;;;12.90;2.22;;;5.70;99.90;;;;;;4968749;28;20046;-75
2022/01/09 10:13:42;;;;;;;10.40;1.92;;;5.70;99.90;;;;;;4972199;28;20410;-75
2022/01/09 10:16:09;;;;;;;12.98;2.30;;;5.80;99.90;;;;;;4948270;28;20042;-75
2022/01/09 10:18:44;;;;;;;8.93;1.92;;;5.80;99.90;;;;;;4967192;28;20045;-75
2022/01/09 10:21:14;;;;;;;12.05;1.98;;;5.80;99.90;;;;;;4951561;28;20046;-75
2022/01/09 10:23:59;;;;;;;10.70;2.17;;;5.80;99.90;;;;;;4967771;28;20042;-75
2022/01/09 10:26:24;;;;;;;14.80;2.45;;;5.80;99.90;;;;;;4985171;28;20401;-75
2022/01/09 10:28:50;;;;;;;14.45;2.30;;;5.80;99.90;;;;;;4968713;28;20046;-75
2022/01/09 10:31:17;;;;;;;12.13;2.25;;;5.80;99.90;;;;;;4953550;28;21725;-75
2022/01/09 10:34:03;;;;;;;11.35;1.92;;;5.90;99.90;;;;;;4972357;28;20404;-75
2022/01/09 10:36:39;;;;;;;10.40;2.33;;;5.90;99.90;;;;;;4965367;28;20122;-75
2022/01/09 10:39:11;;;;;;;11.05;1.95;;;5.90;99.90;;;;;;4963024;28;20441;-75
2022/01/09 10:41:58;;;;;;;9.40;1.80;;;5.90;99.90;;;;;;4970121;28;20073;-75
2022/01/09 10:44:37;;;;;;;9.38;2.10;;;6.00;99.90;;;;;;4973639;28;20977;-75
2022/01/09 10:47:06;;;;;;;12.18;2.47;;;5.90;99.90;;;;;;4967796;28;20093;-75
2022/01/09 10:49:52;;;;;;;13.95;2.60;;;5.90;99.90;;;;;;4966957;28;20104;-75
2022/01/09 10:52:22;;;;;;;10.40;1.90;;;6.00;99.90;;;;;;4966646;28;20444;-75
2022/01/09 10:54:49;;;;;;;15.40;2.60;;;6.00;99.90;;;;;;4983049;28;20400;-75
2022/01/09 10:57:21;;;;;;;11.27;1.70;;;6.00;99.90;;;;;;4939374;28;20100;-75
2022/01/09 10:59:48;;;;;;;12.27;3.15;;;6.10;99.90;;;;;;4969690;28;20223;-75
2022/01/09 11:02:13;;;;;;;11.05;2.15;;;6.10;99.90;;;;;;5265412;23;20056;-75
2022/01/09 11:04:44;;;;;;;9.02;1.77;;;6.20;99.90;;;;;;4959733;28;20050;-75
2022/01/09 11:07:11;;;;;;;11.38;2.35;;;6.20;99.90;;;;;;4959921;28;20417;-75
2022/01/09 11:09:39;;;;;;;11.00;1.90;;;6.40;99.90;;;;;;4965089;28;20432;-75
2022/01/09 11:12:08;;;;;;;13.10;2.63;;;6.40;99.90;;;;;;4957434;28;20062;-75
2022/01/09 11:14:39;;;;;;;11.38;2.47;;;6.40;99.90;;;;;;4953659;28;20043;-75
2022/01/09 11:17:06;;;;;;;12.30;2.90;;;6.40;99.90;;;;;;4936553;28;20038;-75
2022/01/09 11:19:33;;;;;;;12.32;2.88;;;6.50;99.90;;;;;;4953836;28;20047;-76
2022/01/09 11:22:02;;;;;;;11.43;2.05;;;6.50;99.90;;;;;;4938196;28;20035;-75
2022/01/09 11:25:05;;;;;;;19.95;2.95;;;6.60;99.90;;;;;;4952398;28;20153;-75
2022/01/09 11:27:50;;;;;;;18.30;2.42;;;6.60;99.90;;;;;;4951634;28;20046;-76
2022/01/09 11:33:25;;;;;;;18.67;2.95;;;6.60;99.90;;;;;;4793749;26;20047;-75
2022/01/09 11:35:56;;;;;;;19.20;3.55;;;6.60;99.90;;;;;;4959764;28;20058;-76
2022/01/09 11:38:38;;;;;;;18.17;3.88;;;6.60;99.90;;;;;;4961302;28;20083;-76
2022/01/09 11:41:19;;;;;;;15.48;2.80;;;6.70;99.90;;;;;;4972251;28;20031;-75
2022/01/09 11:43:54;;;;;;;20.08;3.10;;;6.70;99.90;;;;;;4975404;28;20029;-76
2022/01/09 11:46:20;;;;;;;15.18;2.78;;;6.70;99.90;;;;;;4957759;28;20110;-75
2022/01/09 11:48:51;;;;;;;18.60;2.97;;;6.80;99.90;;;;;;4973834;28;20049;-75
2022/01/09 11:51:28;;;;;;;16.07;2.33;;;6.70;99.90;;;;;;4971500;28;20039;-76
2022/01/09 11:54:11;;;;;;;14.23;2.60;;;6.80;99.90;;;;;;4987720;28;20099;-76
2022/01/09 11:56:46;;;;;;;21.13;3.08;;;6.80;99.90;;;;;;4973104;28;20054;-76
2022/01/09 11:59:31;;;;;;;17.48;3.05;;;6.90;99.90;;;;;;4974003;28;20125;-76
2022/01/09 12:02:04;;;;;;;17.85;2.95;;;6.90;99.90;;;;;;4976747;28;20044;-75
2022/01/09 12:04:33;;;;;;;16.23;2.97;;;6.90;99.90;;;;;;4973144;28;20101;-76
2022/01/09 12:07:23;;;;;;;16.08;3.00;;;7.00;99.90;;;;;;4975616;28;20049;-76
2022/01/09 12:09:51;;;;;;;18.08;3.00;;;7.10;99.90;;;;;;4955999;28;20148;-76
2022/01/09 12:19:30;;;;;;;19.88;3.50;;;7.20;99.90;;;;;;4905677;28;20051;-76
2022/01/09 12:22:47;;;;;;;;;;;;;;;;;;;;;
2022/01/09 12:25:41;;;;;;;;;;;;;;;;;;;;;
2022/01/09 12:29:07;;;;;;;;;;;;;;;;;;;;;
2022/01/09 12:31:49;;;;;;;17.40;2.92;;;7.60;99.90;;;;;;4861206;29;20061;-76
2022/01/09 12:48:07;;;;;;;14.88;2.55;;;7.50;99.90;;;;;;4728191;30;20122;-77
2022/01/09 12:51:07;;;;;;;16.75;3.25;;;7.60;99.90;;;;;;4791718;29;20069;-77
2022/01/09 12:53:57;;;;;;;13.30;2.40;;;7.50;99.90;;;;;;4811476;29;20050;-77
2022/01/09 12:56:48;;;;;;;14.65;2.38;;;7.60;99.90;;;;;;4834792;29;20143;-77
2022/01/09 13:22:26;;;;;;;10.13;1.83;;;6.80;99.90;;;;;;5084210;23;20061;-78
2022/01/09 13:38:59;;;;;;;24.02;10.25;;;6.40;99.90;;;;;;5098180;27;20537;-77
2022/01/09 13:43:09;;;;;;;;;;;;;;;;;;;;;
2022/01/09 13:46:13;;;;;;;9.63;1.75;;;6.30;99.90;;;;;;5039870;28;20044;-77
2022/01/09 13:58:03;;;;;;;5.68;1.40;;;7.60;99.90;;;;;;5098653;22;20110;-76
2022/01/09 14:00:31;;;;;;;5.05;1.20;;;7.80;99.90;;;;;;5041614;28;20043;-76
2022/01/09 14:02:59;;;;;;;6.65;1.52;;;7.90;99.90;;;;;;5057078;28;20036;-76
2022/01/09 14:05:27;;;;;;;6.38;1.65;;;8.10;99.90;;;;;;5056160;28;20159;-76
2022/01/09 14:07:55;;;;;;;5.55;2.05;;;8.10;99.90;;;;;;5059982;28;20080;-76